sensor_id;sensor_type;location;lat;lon;timestamp;pressure;altitude;pressure_sealevel;temperature;humidity
30614;BME280;17381;51.690;5.270;2023-04-06T00:01:54;101812.16;;;6.22;52.62
30614;BME280;17381;51.690;5.270;2023-04-06T00:04:31;101811.28;;;6.18;53.25
30614;BME280;17381;51.690;5.270;2023-04-06T00:07:15;101811.22;;;6.10;52.14
30614;BME280;17381;51.690;5.270;2023-04-06T00:09:50;101810.34;;;6.07;52.56
30614;BME280;17381;51.690;5.270;2023-04-06T00:12:22;101757.84;;;5.73;52.38
30614;BME280;17381;51.690;5.270;2023-04-06T00:14:56;101800.69;;;6.00;52.37
30614;BME280;17381;51.690;5.270;2023-04-06T00:17:40;101796.31;;;5.94;52.34
30614;BME280;17381;51.690;5.270;2023-04-06T00:20:10;101806.75;;;5.96;52.19
30614;BME280;17381;51.690;5.270;2023-04-06T00:22:38;101793.63;;;5.89;52.65
30614;BME280;17381;51.690;5.270;2023-04-06T00:25:05;101794.50;;;5.93;51.92
30614;BME280;17381;51.690;5.270;2023-04-06T00:27:38;101792.78;;;5.92;52.35
30614;BME280;17381;51.690;5.270;2023-04-06T00:30:10;101784.91;;;5.87;52.05
30614;BME280;17381;51.690;5.270;2023-04-06T00:32:39;101788.38;;;5.86;52.20
30614;BME280;17381;51.690;5.270;2023-04-06T00:35:05;101782.28;;;5.87;52.54
30614;BME280;17381;51.690;5.270;2023-04-06T00:37:45;101781.41;;;5.85;51.74
30614;BME280;17381;51.690;5.270;2023-04-06T00:40:21;101782.28;;;5.84;52.30
30614;BME280;17381;51.690;5.270;2023-04-06T00:42:52;101775.31;;;5.85;52.16
30614;BME280;17381;51.690;5.270;2023-04-06T00:45:23;101765.69;;;5.78;52.27
30614;BME280;17381;51.690;5.270;2023-04-06T00:47:59;101773.56;;;5.85;52.37
30614;BME280;17381;51.690;5.270;2023-04-06T00:50:31;101774.41;;;5.78;52.31
30614;BME280;17381;51.690;5.270;2023-04-06T00:53:07;101770.88;;;5.78;52.17
30614;BME280;17381;51.690;5.270;2023-04-06T00:55:39;101736.78;;;5.55;52.08
30614;BME280;17381;51.690;5.270;2023-04-06T00:58:29;101747.31;;;5.67;52.45
30614;BME280;17381;51.690;5.270;2023-04-06T01:01:05;101755.16;;;5.67;52.19
30614;BME280;17381;51.690;5.270;2023-04-06T01:03:35;101763.94;;;5.77;52.63
30614;BME280;17381;51.690;5.270;2023-04-06T01:06:02;101752.56;;;5.70;52.74
30614;BME280;17381;51.690;5.270;2023-04-06T01:08:38;101719.38;;;5.52;52.56
30614;BME280;17381;51.690;5.270;2023-04-06T01:11:17;101753.47;;;5.71;52.50
30614;BME280;17381;51.690;5.270;2023-04-06T01:13:57;101740.41;;;5.72;52.75
30614;BME280;17381;51.690;5.270;2023-04-06T01:16:54;101742.09;;;5.64;52.38
30614;BME280;17381;51.690;5.270;2023-04-06T01:19:28;101744.75;;;5.68;52.59
30614;BME280;17381;51.690;5.270;2023-04-06T01:22:04;101749.97;;;5.70;52.97
30614;BME280;17381;51.690;5.270;2023-04-06T01:25:01;101729.97;;;5.69;52.85
30614;BME280;17381;51.690;5.270;2023-04-06T01:27:42;101734.38;;;5.76;52.26
30614;BME280;17381;51.690;5.270;2023-04-06T01:30:20;101688.16;;;5.58;52.03
30614;BME280;17381;51.690;5.270;2023-04-06T01:32:53;101730.94;;;5.83;51.82
30614;BME280;17381;51.690;5.270;2023-04-06T01:35:44;101718.78;;;5.82;52.08
30614;BME280;17381;51.690;5.270;2023-04-06T01:38:19;101728.41;;;5.93;52.57
30614;BME280;17381;51.690;5.270;2023-04-06T01:41:01;101730.22;;;5.97;52.13
30614;BME280;17381;51.690;5.270;2023-04-06T01:43:46;101723.25;;;5.96;52.00
30614;BME280;17381;51.690;5.270;2023-04-06T01:46:29;101708.38;;;5.90;52.33
30614;BME280;17381;51.690;5.270;2023-04-06T01:48:59;101705.84;;;5.95;52.00
30614;BME280;17381;51.690;5.270;2023-04-06T01:51:42;101718.94;;;6.04;52.54
30614;BME280;17381;51.690;5.270;2023-04-06T01:54:17;101708.50;;;6.01;52.85
30614;BME280;17381;51.690;5.270;2023-04-06T01:57:19;101702.44;;;6.02;52.41
30614;BME280;17381;51.690;5.270;2023-04-06T01:59:58;101702.44;;;6.02;52.32
30614;BME280;17381;51.690;5.270;2023-04-06T02:02:41;101703.28;;;6.01;52.48
30614;BME280;17381;51.690;5.270;2023-04-06T02:05:20;101693.78;;;6.07;52.45
30614;BME280;17381;51.690;5.270;2023-04-06T02:07:48;101703.28;;;6.04;52.77
30614;BME280;17381;51.690;5.270;2023-04-06T02:10:29;101683.25;;;5.95;52.76
30614;BME280;17381;51.690;5.270;2023-04-06T02:13:07;101692.91;;;6.07;52.64
30614;BME280;17381;51.690;5.270;2023-04-06T02:15:48;101641.38;;;5.81;52.64
30614;BME280;17381;51.690;5.270;2023-04-06T02:18:25;101654.53;;;5.95;53.08
30614;BME280;17381;51.690;5.270;2023-04-06T02:21:12;101678.09;;;6.06;53.29
30614;BME280;17381;51.690;5.270;2023-04-06T02:23:52;101685.06;;;6.07;53.08
30614;BME280;17381;51.690;5.270;2023-04-06T02:26:24;101682.44;;;6.05;53.31
30614;BME280;17381;51.690;5.270;2023-04-06T02:29:07;101673.78;;;6.09;53.02
30614;BME280;17381;51.690;5.270;2023-04-06T02:31:41;101670.28;;;6.07;53.42
30614;BME280;17381;51.690;5.270;2023-04-06T02:34:18;101657.19;;;6.03;53.46
30614;BME280;17381;51.690;5.270;2023-04-06T02:36:55;101659.84;;;6.07;53.75
30614;BME280;17381;51.690;5.270;2023-04-06T02:39:24;101656.38;;;6.11;53.54
30614;BME280;17381;51.690;5.270;2023-04-06T02:42:03;101659.00;;;6.16;53.17
30614;BME280;17381;51.690;5.270;2023-04-06T02:44:39;101655.50;;;6.14;53.41
30614;BME280;17381;51.690;5.270;2023-04-06T02:47:12;101622.31;;;5.92;53.40
30614;BME280;17381;51.690;5.270;2023-04-06T02:49:49;101645.91;;;6.08;52.80
30614;BME280;17381;51.690;5.270;2023-04-06T02:52:21;101604.88;;;5.81;53.10
30614;BME280;17381;51.690;5.270;2023-04-06T02:54:52;101644.16;;;6.06;52.86
30614;BME280;17381;51.690;5.270;2023-04-06T02:57:28;101652.00;;;6.09;53.00
30614;BME280;17381;51.690;5.270;2023-04-06T03:00:06;101646.78;;;6.09;53.48
30614;BME280;17381;51.690;5.270;2023-04-06T03:02:39;101640.66;;;6.04;53.59
30614;BME280;17381;51.690;5.270;2023-04-06T03:05:12;101636.31;;;6.03;53.34
30614;BME280;17381;51.690;5.270;2023-04-06T03:07:48;101642.44;;;6.08;53.28
30614;BME280;17381;51.690;5.270;2023-04-06T03:10:25;101638.91;;;6.01;53.54
30614;BME280;17381;51.690;5.270;2023-04-06T03:13:04;101623.22;;;5.94;53.27
30614;BME280;17381;51.690;5.270;2023-04-06T03:15:56;101645.03;;;6.02;53.72
30614;BME280;17381;51.690;5.270;2023-04-06T03:18:31;101628.47;;;5.97;53.76
30614;BME280;17381;51.690;5.270;2023-04-06T03:21:03;101636.31;;;6.03;53.72
30614;BME280;17381;51.690;5.270;2023-04-06T03:23:45;101635.34;;;5.93;53.89
30614;BME280;17381;51.690;5.270;2023-04-06T03:26:23;101629.25;;;5.86;53.99
30614;BME280;17381;51.690;5.270;2023-04-06T03:29:03;101629.25;;;5.89;53.78
30614;BME280;17381;51.690;5.270;2023-04-06T03:31:35;101625.75;;;5.84;53.75
30614;BME280;17381;51.690;5.270;2023-04-06T03:34:24;101621.38;;;5.80;54.10
30614;BME280;17381;51.690;5.270;2023-04-06T03:37:03;101623.97;;;5.83;54.25
30614;BME280;17381;51.690;5.270;2023-04-06T03:39:40;101627.44;;;5.79;53.90
30614;BME280;17381;51.690;5.270;2023-04-06T03:42:34;101618.72;;;5.74;54.51
30614;BME280;17381;51.690;5.270;2023-04-06T03:45:13;101626.56;;;5.74;54.46
30614;BME280;17381;51.690;5.270;2023-04-06T03:47:46;101623.06;;;5.71;54.62
30614;BME280;17381;51.690;5.270;2023-04-06T03:50:18;101617.78;;;5.64;54.61
30614;BME280;17381;51.690;5.270;2023-04-06T03:52:45;101615.22;;;5.69;54.44
30614;BME280;17381;51.690;5.270;2023-04-06T03:55:18;101555.84;;;5.34;54.59
30614;BME280;17381;51.690;5.270;2023-04-06T03:57:47;101614.34;;;5.65;54.59
30614;BME280;17381;51.690;5.270;2023-04-06T04:00:22;101613.44;;;5.63;55.03
30614;BME280;17381;51.690;5.270;2023-04-06T04:02:59;101609.97;;;5.66;55.26
30614;BME280;17381;51.690;5.270;2023-04-06T04:05:38;101609.97;;;5.64;55.09
30614;BME280;17381;51.690;5.270;2023-04-06T04:08:15;101606.50;;;5.64;55.26
30614;BME280;17381;51.690;5.270;2023-04-06T04:10:49;101580.31;;;5.49;55.03
30614;BME280;17381;51.690;5.270;2023-04-06T04:13:23;101605.56;;;5.57;55.24
30614;BME280;17381;51.690;5.270;2023-04-06T04:16:02;101610.00;;;5.69;54.90
30614;BME280;17381;51.690;5.270;2023-04-06T04:18:38;101611.72;;;5.70;55.11
30614;BME280;17381;51.690;5.270;2023-04-06T04:21:17;101599.53;;;5.64;55.31
30614;BME280;17381;51.690;5.270;2023-04-06T04:23:53;101610.94;;;5.76;55.38
30614;BME280;17381;51.690;5.270;2023-04-06T04:26:28;101594.34;;;5.69;55.23
30614;BME280;17381;51.690;5.270;2023-04-06T04:29:05;101601.34;;;5.78;55.34
30614;BME280;17381;51.690;5.270;2023-04-06T04:31:38;101597.84;;;5.73;55.19
30614;BME280;17381;51.690;5.270;2023-04-06T04:34:09;101604.84;;;5.78;55.00
30614;BME280;17381;51.690;5.270;2023-04-06T04:36:47;101597.88;;;5.77;55.31
30614;BME280;17381;51.690;5.270;2023-04-06T04:39:30;101605.72;;;5.83;55.00
30614;BME280;17381;51.690;5.270;2023-04-06T04:42:14;101607.50;;;5.84;54.86
30614;BME280;17381;51.690;5.270;2023-04-06T04:44:53;101552.53;;;5.57;55.25
30614;BME280;17381;51.690;5.270;2023-04-06T04:47:39;101594.34;;;5.69;54.90
30614;BME280;17381;51.690;5.270;2023-04-06T04:50:13;101610.09;;;5.84;54.95
30614;BME280;17381;51.690;5.270;2023-04-06T04:52:53;101566.50;;;5.65;55.07
30614;BME280;17381;51.690;5.270;2023-04-06T04:55:21;101598.78;;;5.85;54.91
30614;BME280;17381;51.690;5.270;2023-04-06T04:58:04;101591.81;;;5.81;54.98
30614;BME280;17381;51.690;5.270;2023-04-06T05:00:50;101583.13;;;5.82;55.16
30614;BME280;17381;51.690;5.270;2023-04-06T05:03:34;101591.84;;;5.87;55.31
30614;BME280;17381;51.690;5.270;2023-04-06T05:06:08;101585.72;;;5.82;55.17
30614;BME280;17381;51.690;5.270;2023-04-06T05:08:44;101565.66;;;5.66;54.91
30614;BME280;17381;51.690;5.270;2023-04-06T05:11:25;101604.88;;;5.84;54.93
30614;BME280;17381;51.690;5.270;2023-04-06T05:14:10;101599.66;;;5.86;55.23
30614;BME280;17381;51.690;5.270;2023-04-06T05:16:49;101568.28;;;5.69;55.10
30614;BME280;17381;51.690;5.270;2023-04-06T05:19:22;101587.44;;;5.80;54.57
30614;BME280;17381;51.690;5.270;2023-04-06T05:22:00;101596.19;;;5.85;54.80
30614;BME280;17381;51.690;5.270;2023-04-06T05:24:30;101593.56;;;5.85;55.07
30614;BME280;17381;51.690;5.270;2023-04-06T05:27:03;101556.94;;;5.64;54.98
30614;BME280;17381;51.690;5.270;2023-04-06T05:29:35;101592.72;;;5.86;55.38
30614;BME280;17381;51.690;5.270;2023-04-06T05:32:04;101529.03;;;5.47;54.95
30614;BME280;17381;51.690;5.270;2023-04-06T05:34:42;101563.91;;;5.69;55.09
30614;BME280;17381;51.690;5.270;2023-04-06T05:37:14;101593.63;;;5.92;55.46
30614;BME280;17381;51.690;5.270;2023-04-06T05:39:46;101596.25;;;5.96;55.85
30614;BME280;17381;51.690;5.270;2023-04-06T05:42:16;101590.19;;;5.99;55.48
30614;BME280;17381;51.690;5.270;2023-04-06T05:44:55;101588.47;;;6.01;55.05
30614;BME280;17381;51.690;5.270;2023-04-06T05:47:34;101580.66;;;6.04;55.41
30614;BME280;17381;51.690;5.270;2023-04-06T05:50:27;101577.19;;;6.05;55.14
30614;BME280;17381;51.690;5.270;2023-04-06T05:53:00;101593.75;;;6.13;55.18
30614;BME280;17381;51.690;5.270;2023-04-06T05:55:39;101585.94;;;6.13;55.15
30614;BME280;17381;51.690;5.270;2023-04-06T05:58:29;101587.66;;;6.13;55.22
30614;BME280;17381;51.690;5.270;2023-04-06T06:01:06;101590.31;;;6.17;54.87
30614;BME280;17381;51.690;5.270;2023-04-06T06:03:43;101597.28;;;6.20;54.76
30614;BME280;17381;51.690;5.270;2023-04-06T06:06:13;101587.69;;;6.22;54.96
30614;BME280;17381;51.690;5.270;2023-04-06T06:09:03;101586.81;;;6.15;54.94
30614;BME280;17381;51.690;5.270;2023-04-06T06:11:35;101593.81;;;6.28;55.45
30614;BME280;17381;51.690;5.270;2023-04-06T06:14:08;101586.88;;;6.30;54.88
30614;BME280;17381;51.690;5.270;2023-04-06T06:16:37;101595.59;;;6.34;55.40
30614;BME280;17381;51.690;5.270;2023-04-06T06:19:14;101599.09;;;6.45;55.15
30614;BME280;17381;51.690;5.270;2023-04-06T06:21:44;101598.25;;;6.51;54.85
30614;BME280;17381;51.690;5.270;2023-04-06T06:24:13;101538.97;;;6.19;55.11
30614;BME280;17381;51.690;5.270;2023-04-06T06:26:46;101593.06;;;6.57;54.89
30614;BME280;17381;51.690;5.270;2023-04-06T06:29:21;101586.97;;;6.57;54.98
30614;BME280;17381;51.690;5.270;2023-04-06T06:31:51;101597.41;;;6.60;55.07
30614;BME280;17381;51.690;5.270;2023-04-06T06:34:20;101593.03;;;6.55;54.63
30614;BME280;17381;51.690;5.270;2023-04-06T06:36:52;101529.41;;;6.18;54.84
30614;BME280;17381;51.690;5.270;2023-04-06T06:39:32;101593.94;;;6.59;55.04
30614;BME280;17381;51.690;5.270;2023-04-06T06:42:05;101585.25;;;6.65;54.79
30614;BME280;17381;51.690;5.270;2023-04-06T06:44:53;101587.88;;;6.66;54.71
30614;BME280;17381;51.690;5.270;2023-04-06T06:47:23;101580.88;;;6.62;55.12
30614;BME280;17381;51.690;5.270;2023-04-06T06:49:55;101581.75;;;6.64;54.92
30614;BME280;17381;51.690;5.270;2023-04-06T06:52:35;101594.81;;;6.73;55.05
30614;BME280;17381;51.690;5.270;2023-04-06T06:55:01;101591.34;;;6.74;55.20
30614;BME280;17381;51.690;5.270;2023-04-06T06:57:35;101586.97;;;6.73;55.26
30614;BME280;17381;51.690;5.270;2023-04-06T07:00:13;101588.75;;;6.77;54.98
30614;BME280;17381;51.690;5.270;2023-04-06T07:02:40;101591.34;;;6.81;55.18
30614;BME280;17381;51.690;5.270;2023-04-06T07:05:15;101554.78;;;6.71;55.38
30614;BME280;17381;51.690;5.270;2023-04-06T07:07:44;101576.56;;;6.83;55.20
30614;BME280;17381;51.690;5.270;2023-04-06T07:10:13;101559.13;;;6.75;55.44
30614;BME280;17381;51.690;5.270;2023-04-06T07:12:51;101579.19;;;6.93;54.92
30614;BME280;17381;51.690;5.270;2023-04-06T07:15:21;101575.72;;;6.96;55.16
30614;BME280;17381;51.690;5.270;2023-04-06T07:17:52;101572.25;;;6.97;55.42
30614;BME280;17381;51.690;5.270;2023-04-06T07:20:28;101576.59;;;7.06;55.22
30614;BME280;17381;51.690;5.270;2023-04-06T07:23:12;101553.06;;;6.98;55.22
30614;BME280;17381;51.690;5.270;2023-04-06T07:25:47;101527.78;;;6.86;55.14
30614;BME280;17381;51.690;5.270;2023-04-06T07:28:16;101573.97;;;7.19;55.15
30614;BME280;17381;51.690;5.270;2023-04-06T07:30:49;101574.84;;;7.26;55.36
30614;BME280;17381;51.690;5.270;2023-04-06T07:33:26;101555.69;;;7.21;55.32
30614;BME280;17381;51.690;5.270;2023-04-06T07:35:58;101580.94;;;7.39;55.23
30614;BME280;17381;51.690;5.270;2023-04-06T07:38:33;101573.97;;;7.44;55.29
30614;BME280;17381;51.690;5.270;2023-04-06T07:41:11;101573.09;;;7.47;55.35
30614;BME280;17381;51.690;5.270;2023-04-06T07:43:48;101579.19;;;7.50;55.16
30614;BME280;17381;51.690;5.270;2023-04-06T07:46:24;101552.16;;;7.45;55.08
30614;BME280;17381;51.690;5.270;2023-04-06T07:49:02;101577.41;;;7.58;55.12
30614;BME280;17381;51.690;5.270;2023-04-06T07:51:38;101568.69;;;7.61;55.18
30614;BME280;17381;51.690;5.270;2023-04-06T07:54:14;101573.94;;;7.62;54.96
30614;BME280;17381;51.690;5.270;2023-04-06T07:56:51;101571.31;;;7.64;54.76
30614;BME280;17381;51.690;5.270;2023-04-06T07:59:35;101566.06;;;7.69;54.60
30614;BME280;17381;51.690;5.270;2023-04-06T08:02:06;101532.13;;;7.42;54.92
30614;BME280;17381;51.690;5.270;2023-04-06T08:04:35;101586.09;;;7.79;55.27
30614;BME280;17381;51.690;5.270;2023-04-06T08:07:13;101562.56;;;7.71;55.20
30614;BME280;17381;51.690;5.270;2023-04-06T08:09:45;101566.06;;;7.75;55.21
30614;BME280;17381;51.690;5.270;2023-04-06T08:12:23;101580.00;;;7.86;55.20
30614;BME280;17381;51.690;5.270;2023-04-06T08:14:54;101572.13;;;7.89;55.46
30614;BME280;17381;51.690;5.270;2023-04-06T08:17:31;101575.59;;;7.99;55.28
30614;BME280;17381;51.690;5.270;2023-04-06T08:20:06;101579.06;;;8.08;55.67
30614;BME280;17381;51.690;5.270;2023-04-06T08:22:36;101546.81;;;8.00;55.62
30614;BME280;17381;51.690;5.270;2023-04-06T08:25:05;101578.97;;;8.27;55.08
30614;BME280;17381;51.690;5.270;2023-04-06T08:27:34;101569.38;;;8.27;55.25
30614;BME280;17381;51.690;5.270;2023-04-06T08:30:10;101587.66;;;8.41;55.10
30614;BME280;17381;51.690;5.270;2023-04-06T08:32:52;101586.78;;;8.45;55.07
30614;BME280;17381;51.690;5.270;2023-04-06T08:35:35;101581.53;;;8.45;54.89
30614;BME280;17381;51.690;5.270;2023-04-06T08:38:07;101585.00;;;8.50;55.31
30614;BME280;17381;51.690;5.270;2023-04-06T08:40:40;101586.72;;;8.58;54.93
30614;BME280;17381;51.690;5.270;2023-04-06T08:43:24;101586.69;;;8.64;55.47
30614;BME280;17381;51.690;5.270;2023-04-06T08:45:59;101580.53;;;8.71;55.77
30614;BME280;17381;51.690;5.270;2023-04-06T08:48:28;101585.72;;;8.77;55.04
30614;BME280;17381;51.690;5.270;2023-04-06T08:50:57;101585.69;;;8.83;55.06
30614;BME280;17381;51.690;5.270;2023-04-06T08:53:38;101579.47;;;8.95;55.12
30614;BME280;17381;51.690;5.270;2023-04-06T08:56:06;101587.34;;;8.97;55.09
30614;BME280;17381;51.690;5.270;2023-04-06T08:58:39;101579.44;;;9.04;55.45
30614;BME280;17381;51.690;5.270;2023-04-06T09:01:20;101567.16;;;9.08;55.88
30614;BME280;17381;51.690;5.270;2023-04-06T09:03:58;101580.16;;;9.20;55.82
30614;BME280;17381;51.690;5.270;2023-04-06T09:06:48;101581.00;;;9.25;55.86
30614;BME280;17381;51.690;5.270;2023-04-06T09:09:29;101567.00;;;9.29;56.29
30614;BME280;17381;51.690;5.270;2023-04-06T09:12:05;101577.41;;;9.34;56.15
30614;BME280;17381;51.690;5.270;2023-04-06T09:14:41;101543.53;;;9.14;57.72
30614;BME280;17381;51.690;5.270;2023-04-06T09:17:20;101582.78;;;9.20;58.82
30614;BME280;17381;51.690;5.270;2023-04-06T09:19:50;101542.06;;;8.76;60.83
30614;BME280;17381;51.690;5.270;2023-04-06T09:22:19;101587.44;;;8.84;61.85
30614;BME280;17381;51.690;5.270;2023-04-06T09:24:58;101586.59;;;8.79;62.88
30614;BME280;17381;51.690;5.270;2023-04-06T09:27:34;101591.88;;;8.71;62.69
30614;BME280;17381;51.690;5.270;2023-04-06T09:30:16;101585.75;;;8.71;63.37
30614;BME280;17381;51.690;5.270;2023-04-06T09:32:55;101578.81;;;8.64;63.22
30614;BME280;17381;51.690;5.270;2023-04-06T09:35:23;101579.69;;;8.66;64.37
30614;BME280;17381;51.690;5.270;2023-04-06T09:38:13;101588.38;;;8.72;64.39
30614;BME280;17381;51.690;5.270;2023-04-06T09:40:50;101584.91;;;8.66;64.52
30614;BME280;17381;51.690;5.270;2023-04-06T09:43:27;101579.69;;;8.67;64.78
30614;BME280;17381;51.690;5.270;2023-04-06T09:45:55;101580.56;;;8.68;65.05
30614;BME280;17381;51.690;5.270;2023-04-06T09:48:30;101578.81;;;8.65;66.26
30614;BME280;17381;51.690;5.270;2023-04-06T09:51:12;101569.25;;;8.54;65.99
30614;BME280;17381;51.690;5.270;2023-04-06T09:53:55;101580.56;;;8.62;66.85
30614;BME280;17381;51.690;5.270;2023-04-06T09:59:53;101590.25;;;8.50;67.96
30614;BME280;17381;51.690;5.270;2023-04-06T10:02:49;101586.78;;;8.36;68.54
30614;BME280;17381;51.690;5.270;2023-04-06T10:08:06;101532.00;;;7.85;70.83
30614;BME280;17381;51.690;5.270;2023-04-06T10:10:39;101549.47;;;7.85;71.31
30614;BME280;17381;51.690;5.270;2023-04-06T10:13:18;101581.69;;;8.02;72.05
30614;BME280;17381;51.690;5.270;2023-04-06T10:15:54;101591.28;;;8.06;72.30
30614;BME280;17381;51.690;5.270;2023-04-06T10:18:32;101572.97;;;8.00;72.81
30614;BME280;17381;51.690;5.270;2023-04-06T10:21:30;101589.53;;;8.08;73.55
30614;BME280;17381;51.690;5.270;2023-04-06T10:24:08;101557.31;;;7.88;74.38
30614;BME280;17381;51.690;5.270;2023-04-06T10:26:46;101554.63;;;7.97;75.24
30614;BME280;17381;51.690;5.270;2023-04-06T10:29:25;101591.25;;;8.13;76.06
30614;BME280;17381;51.690;5.270;2023-04-06T10:32:04;101566.00;;;7.95;76.32
30614;BME280;17381;51.690;5.270;2023-04-06T10:34:44;101593.88;;;8.11;76.58
30614;BME280;17381;51.690;5.270;2023-04-06T10:37:17;101595.63;;;8.09;76.85
30614;BME280;17381;51.690;5.270;2023-04-06T10:39:51;101593.00;;;8.14;76.63
30614;BME280;17381;51.690;5.270;2023-04-06T10:42:37;101582.53;;;8.09;77.23
30614;BME280;17381;51.690;5.270;2023-04-06T10:45:19;101555.53;;;7.92;77.53
30614;BME280;17381;51.690;5.270;2023-04-06T10:47:46;101580.75;;;8.16;77.83
30614;BME280;17381;51.690;5.270;2023-04-06T10:50:35;101577.25;;;8.15;78.09
30614;BME280;17381;51.690;5.270;2023-04-06T10:53:30;101581.59;;;8.21;78.20
30614;BME280;17381;51.690;5.270;2023-04-06T10:56:16;101532.84;;;7.97;78.02
30614;BME280;17381;51.690;5.270;2023-04-06T10:58:54;101571.09;;;8.32;78.61
30614;BME280;17381;51.690;5.270;2023-04-06T11:01:36;101558.84;;;8.47;78.72
30614;BME280;17381;51.690;5.270;2023-04-06T11:04:20;101563.97;;;8.61;79.08
30614;BME280;17381;51.690;5.270;2023-04-06T11:07:03;101564.78;;;8.74;78.91
30614;BME280;17381;51.690;5.270;2023-04-06T11:09:49;101556.81;;;8.88;79.01
30614;BME280;17381;51.690;5.270;2023-04-06T11:12:27;101560.25;;;8.93;78.53
30614;BME280;17381;51.690;5.270;2023-04-06T11:15:03;101558.53;;;8.92;78.48
30614;BME280;17381;51.690;5.270;2023-04-06T11:17:36;101545.44;;;8.87;78.27
30614;BME280;17381;51.690;5.270;2023-04-06T11:20:17;101546.31;;;8.88;78.38
30614;BME280;17381;51.690;5.270;2023-04-06T11:22:57;101551.56;;;8.88;78.55
30614;BME280;17381;51.690;5.270;2023-04-06T11:25:29;101544.59;;;8.85;78.35
30614;BME280;17381;51.690;5.270;2023-04-06T11:28:12;101543.75;;;8.83;78.48
30614;BME280;17381;51.690;5.270;2023-04-06T11:30:48;101541.94;;;8.91;79.27
30614;BME280;17381;51.690;5.270;2023-04-06T11:33:21;101527.91;;;8.95;79.34
30614;BME280;17381;51.690;5.270;2023-04-06T11:35:57;101533.09;;;9.05;78.91
30614;BME280;17381;51.690;5.270;2023-04-06T11:38:28;101514.75;;;9.03;78.49
30614;BME280;17381;51.690;5.270;2023-04-06T11:40:57;101478.09;;;8.95;78.48
30614;BME280;17381;51.690;5.270;2023-04-06T11:43:34;101517.03;;;9.40;78.95
30614;BME280;17381;51.690;5.270;2023-04-06T11:46:17;101506.31;;;9.60;79.00
30614;BME280;17381;51.690;5.270;2023-04-06T11:48:57;101510.47;;;9.78;79.22
30614;BME280;17381;51.690;5.270;2023-04-06T11:51:29;101513.09;;;9.79;78.08
30614;BME280;17381;51.690;5.270;2023-04-06T11:54:01;101492.19;;;9.73;77.66
30614;BME280;17381;51.690;5.270;2023-04-06T11:56:35;101493.91;;;9.74;77.51
30614;BME280;17381;51.690;5.270;2023-04-06T11:59:10;101467.03;;;9.54;77.48
30614;BME280;17381;51.690;5.270;2023-04-06T12:01:49;101455.75;;;9.46;77.13
30614;BME280;17381;51.690;5.270;2023-04-06T12:04:31;101499.16;;;9.74;77.35
30614;BME280;17381;51.690;5.270;2023-04-06T12:07:05;101502.59;;;9.78;77.21
30614;BME280;17381;51.690;5.270;2023-04-06T12:09:41;101491.19;;;9.80;77.83
30614;BME280;17381;51.690;5.270;2023-04-06T12:12:17;101492.09;;;9.81;77.31
30614;BME280;17381;51.690;5.270;2023-04-06T12:14:46;101488.78;;;9.64;77.03
30614;BME280;17381;51.690;5.270;2023-04-06T12:17:27;101495.00;;;9.55;76.78
30614;BME280;17381;51.690;5.270;2023-04-06T12:19:55;101483.84;;;9.37;77.80
30614;BME280;17381;51.690;5.270;2023-04-06T12:22:27;101469.94;;;9.26;77.48
30614;BME280;17381;51.690;5.270;2023-04-06T12:25:11;101491.00;;;9.20;77.27
30614;BME280;17381;51.690;5.270;2023-04-06T12:27:54;101481.53;;;9.02;78.07
30614;BME280;17381;51.690;5.270;2023-04-06T12:30:34;101492.00;;;9.05;78.63
30614;BME280;17381;51.690;5.270;2023-04-06T12:33:01;101492.06;;;8.99;78.81
30614;BME280;17381;51.690;5.270;2023-04-06T12:35:33;101488.59;;;8.97;78.50
30614;BME280;17381;51.690;5.270;2023-04-06T12:38:14;101491.22;;;8.95;79.86
30614;BME280;17381;51.690;5.270;2023-04-06T12:40:49;101450.38;;;8.68;79.52
30614;BME280;17381;51.690;5.270;2023-04-06T12:43:16;101491.31;;;8.86;79.84
30614;BME280;17381;51.690;5.270;2023-04-06T12:45:58;101480.00;;;8.77;80.13
30614;BME280;17381;51.690;5.270;2023-04-06T12:48:31;101444.38;;;8.54;80.53
30614;BME280;17381;51.690;5.270;2023-04-06T12:51:07;101486.16;;;8.74;81.15
30614;BME280;17381;51.690;5.270;2023-04-06T12:53:39;101472.25;;;8.66;80.63
30614;BME280;17381;51.690;5.270;2023-04-06T12:56:14;101483.63;;;8.62;81.15
30614;BME280;17381;51.690;5.270;2023-04-06T12:58:43;101475.84;;;8.52;82.03
30614;BME280;17381;51.690;5.270;2023-04-06T13:01:17;101471.53;;;8.47;82.44
30614;BME280;17381;51.690;5.270;2023-04-06T13:03:56;101473.19;;;8.54;82.21
30614;BME280;17381;51.690;5.270;2023-04-06T13:06:25;101464.50;;;8.49;83.12
30614;BME280;17381;51.690;5.270;2023-04-06T13:08:59;101464.50;;;8.49;83.51
30614;BME280;17381;51.690;5.270;2023-04-06T13:11:41;101464.50;;;8.52;83.37
30614;BME280;17381;51.690;5.270;2023-04-06T13:14:36;101464.50;;;8.50;83.94
30614;BME280;17381;51.690;5.270;2023-04-06T13:17:16;101460.13;;;8.52;83.95
30614;BME280;17381;51.690;5.270;2023-04-06T13:19:49;101449.66;;;8.49;83.43
30614;BME280;17381;51.690;5.270;2023-04-06T13:22:33;101444.41;;;8.52;84.65
30614;BME280;17381;51.690;5.270;2023-04-06T13:25:16;101419.19;;;8.39;84.36
30614;BME280;17381;51.690;5.270;2023-04-06T13:27:54;101451.34;;;8.57;84.30
30614;BME280;17381;51.690;5.270;2023-04-06T13:30:26;101430.41;;;8.54;84.50
30614;BME280;17381;51.690;5.270;2023-04-06T13:32:55;101438.25;;;8.58;84.98
30614;BME280;17381;51.690;5.270;2023-04-06T13:35:27;101444.41;;;8.52;84.45
30614;BME280;17381;51.690;5.270;2023-04-06T13:38:21;101400.94;;;8.22;84.45
30614;BME280;17381;51.690;5.270;2023-04-06T13:40:59;101336.63;;;7.83;84.38
30614;BME280;17381;51.690;5.270;2023-04-06T13:43:39;101374.78;;;8.15;84.86
30614;BME280;17381;51.690;5.270;2023-04-06T13:46:14;101424.38;;;8.44;84.66
30614;BME280;17381;51.690;5.270;2023-04-06T13:48:43;101424.34;;;8.48;85.16
30614;BME280;17381;51.690;5.270;2023-04-06T13:51:22;101417.34;;;8.50;85.59
30614;BME280;17381;51.690;5.270;2023-04-06T13:53:55;101426.91;;;8.51;85.63
30614;BME280;17381;51.690;5.270;2023-04-06T13:56:22;101429.53;;;8.51;85.71